createdAt,value
2019-03-27T00:00:12.713Z,14.28
2019-03-27T00:02:41.838Z,21.75
2019-03-27T00:05:11.163Z,12.53
2019-03-27T00:07:40.240Z,21.87
2019-03-27T00:10:10.083Z,16.05
2019-03-27T00:12:39.523Z,22.40
2019-03-27T00:15:13.171Z,19.55
2019-03-27T00:17:40.921Z,19.02
2019-03-27T00:20:10.641Z,20.72
2019-03-27T00:22:39.905Z,16.15
2019-03-27T00:25:10.703Z,14.40
2019-03-27T00:27:39.808Z,19.12
2019-03-27T00:30:12.418Z,15.58
2019-03-27T00:32:41.617Z,17.57
2019-03-27T00:35:10.854Z,17.85
2019-03-27T00:37:40.326Z,16.02
2019-03-27T00:40:10.056Z,15.55
2019-03-27T00:42:39.594Z,18.17
2019-03-27T00:45:09.548Z,12.90
2019-03-27T00:47:38.666Z,18.42
2019-03-27T00:50:10.152Z,17.27
2019-03-27T00:52:39.304Z,17.65
2019-03-27T00:55:09.527Z,18.73
2019-03-27T00:57:38.849Z,22.05
2019-03-27T01:00:11.193Z,16.00
2019-03-27T01:02:40.314Z,13.40
2019-03-27T01:05:09.858Z,19.23
2019-03-27T01:07:39.128Z,21.00
2019-03-27T01:10:08.554Z,17.90
2019-03-27T01:12:37.854Z,14.23
2019-03-27T01:15:08.526Z,23.65
2019-03-27T01:17:37.598Z,14.55
2019-03-27T01:20:07.065Z,15.63
2019-03-27T01:22:36.645Z,9.13
2019-03-27T01:25:07.315Z,18.65
2019-03-27T01:27:36.434Z,17.27
2019-03-27T01:30:06.764Z,11.40
2019-03-27T01:32:35.933Z,19.65
2019-03-27T01:35:05.801Z,12.18
2019-03-27T01:37:34.942Z,13.78
2019-03-27T01:40:04.399Z,17.82
2019-03-27T01:42:33.819Z,7.97
2019-03-27T01:45:03.764Z,15.28
2019-03-27T01:47:32.866Z,12.18
2019-03-27T01:50:02.158Z,13.32
2019-03-27T01:52:31.390Z,15.32
2019-03-27T01:55:00.536Z,10.45
2019-03-27T01:57:29.706Z,10.72
2019-03-27T01:59:58.802Z,12.15
2019-03-27T02:02:27.951Z,16.23
2019-03-27T02:04:57.339Z,11.08
2019-03-27T02:07:26.444Z,21.05
2019-03-27T02:09:56.018Z,9.28
2019-03-27T02:12:25.630Z,11.12
2019-03-27T02:14:54.654Z,15.43
2019-03-27T02:17:23.720Z,12.33
2019-03-27T02:19:52.823Z,12.35
2019-03-27T02:22:22.067Z,17.10
2019-03-27T02:24:51.228Z,14.23
2019-03-27T02:27:20.557Z,17.02
2019-03-27T02:29:49.686Z,17.00
2019-03-27T02:32:20.655Z,17.50
2019-03-27T02:34:49.458Z,15.35
2019-03-27T02:37:18.599Z,12.05
2019-03-27T02:39:47.706Z,16.20
2019-03-27T02:42:17.444Z,14.68
2019-03-27T02:44:46.578Z,13.62
2019-03-27T02:47:15.719Z,13.25
2019-03-27T02:49:44.811Z,17.40
2019-03-27T02:52:13.925Z,14.20
2019-03-27T02:54:43.082Z,15.10
2019-03-27T02:57:12.188Z,15.35
2019-03-27T02:59:41.547Z,17.95
2019-03-27T03:02:10.684Z,19.00
2019-03-27T03:04:39.798Z,16.23
2019-03-27T03:07:08.970Z,15.03
2019-03-27T03:09:38.279Z,17.65
2019-03-27T03:12:07.547Z,18.42
2019-03-27T03:14:36.652Z,12.80
2019-03-27T03:17:06.128Z,15.48
2019-03-27T03:19:35.266Z,12.63
2019-03-27T03:22:04.484Z,17.65
2019-03-27T03:24:33.651Z,19.55
2019-03-27T03:27:03.110Z,9.78
2019-03-27T03:29:32.249Z,15.75
2019-03-27T03:32:01.387Z,18.85
2019-03-27T03:34:30.492Z,14.18
2019-03-27T03:36:59.943Z,9.83
2019-03-27T03:39:29.110Z,14.15
2019-03-27T03:41:58.217Z,14.13
2019-03-27T03:44:28.027Z,17.10
2019-03-27T03:47:00.185Z,12.10
2019-03-27T03:49:27.964Z,14.43
2019-03-27T03:51:57.064Z,10.15
2019-03-27T03:54:26.277Z,15.95
2019-03-27T03:56:57.727Z,12.68
2019-03-27T03:59:28.749Z,11.95
2019-03-27T04:01:59.370Z,13.15
2019-03-27T04:04:29.783Z,15.13
2019-03-27T04:06:58.923Z,14.85
2019-03-27T04:09:28.063Z,14.80
2019-03-27T04:11:57.192Z,17.25
2019-03-27T04:14:27.144Z,11.75
2019-03-27T04:16:56.280Z,12.93
2019-03-27T04:19:25.315Z,11.22
2019-03-27T04:21:54.697Z,14.80
2019-03-27T04:24:23.801Z,13.10
2019-03-27T04:26:52.970Z,15.28
2019-03-27T04:29:22.307Z,9.70
2019-03-27T04:31:51.424Z,11.80
2019-03-27T04:34:20.543Z,15.38
2019-03-27T04:36:49.654Z,11.03
2019-03-27T04:39:18.794Z,15.35
2019-03-27T04:41:47.823Z,14.40
2019-03-27T04:44:16.921Z,12.65
2019-03-27T04:46:46.067Z,16.77
2019-03-27T04:49:15.218Z,12.93
2019-03-27T04:51:44.919Z,16.05
2019-03-27T04:54:14.055Z,13.55
2019-03-27T04:56:43.219Z,14.18
2019-03-27T04:59:12.744Z,15.05
2019-03-27T05:01:41.852Z,18.77
2019-03-27T05:04:11.093Z,23.83
2019-03-27T05:06:40.203Z,19.20
2019-03-27T05:09:09.314Z,17.90
2019-03-27T05:11:38.461Z,14.93
2019-03-27T05:14:07.897Z,14.98
2019-03-27T05:16:36.946Z,16.45
2019-03-27T05:19:05.959Z,15.03
2019-03-27T05:21:35.162Z,15.95
2019-03-27T05:24:04.306Z,18.75
2019-03-27T05:26:33.421Z,18.48
2019-03-27T05:29:02.689Z,18.65
2019-03-27T05:31:31.810Z,21.48
2019-03-27T05:34:00.882Z,15.78
2019-03-27T05:36:30.038Z,20.95
2019-03-27T05:38:59.374Z,20.97
2019-03-27T05:41:28.530Z,18.80
2019-03-27T05:43:57.659Z,21.27
2019-03-27T05:46:26.809Z,19.87
2019-03-27T05:48:56.265Z,20.00
2019-03-27T05:51:25.383Z,20.08
2019-03-27T05:53:54.470Z,22.25
2019-03-27T05:56:23.618Z,21.07
2019-03-27T05:58:53.158Z,24.23
2019-03-27T06:01:22.233Z,20.37
2019-03-27T06:03:51.330Z,22.60
2019-03-27T06:06:20.607Z,18.00
2019-03-27T06:08:49.806Z,23.38
2019-03-27T06:11:18.928Z,16.57
2019-03-27T06:13:48.058Z,15.13
2019-03-27T06:16:17.174Z,20.48
2019-03-27T06:18:46.303Z,18.90
2019-03-27T06:21:15.384Z,17.37
2019-03-27T06:23:44.809Z,18.65
2019-03-27T06:26:13.932Z,17.50
2019-03-27T06:28:43.050Z,21.27
2019-03-27T06:31:12.600Z,17.35
2019-03-27T06:33:41.786Z,20.72
2019-03-27T06:36:10.894Z,18.95
2019-03-27T06:38:40.123Z,22.17
2019-03-27T06:41:09.203Z,18.17
2019-03-27T06:43:38.400Z,18.85
2019-03-27T06:46:07.892Z,17.10
2019-03-27T06:48:36.999Z,22.75
2019-03-27T06:51:06.050Z,19.10
2019-03-27T06:53:35.073Z,17.92
2019-03-27T06:56:04.322Z,22.32
2019-03-27T06:58:33.441Z,16.70
2019-03-27T07:01:02.877Z,18.40
2019-03-27T07:03:31.963Z,20.82
2019-03-27T07:06:01.084Z,20.77
2019-03-27T07:08:30.671Z,24.32
2019-03-27T07:10:59.772Z,18.87
2019-03-27T07:13:28.920Z,17.75
2019-03-27T07:15:58.068Z,21.35
2019-03-27T07:18:39.559Z,22.10
2019-03-27T07:20:58.283Z,21.70
2019-03-27T07:23:27.418Z,24.77
2019-03-27T07:25:56.452Z,25.80
2019-03-27T07:28:25.595Z,15.85
2019-03-27T07:30:54.751Z,18.55
2019-03-27T07:33:23.860Z,23.57
2019-03-27T07:35:53.327Z,23.67
2019-03-27T07:38:22.440Z,19.37
2019-03-27T07:40:51.633Z,21.97
2019-03-27T07:43:22.069Z,19.80
2019-03-27T07:45:51.223Z,23.25
2019-03-27T07:48:20.359Z,22.32
2019-03-27T07:50:49.874Z,21.70
2019-03-27T07:53:22.313Z,18.00
2019-03-27T07:55:49.940Z,20.05
2019-03-27T07:58:19.065Z,19.42
2019-03-27T08:00:48.680Z,16.73
2019-03-27T08:03:17.758Z,23.22
2019-03-27T08:05:46.872Z,18.50
2019-03-27T08:08:15.989Z,22.52
2019-03-27T08:10:45.163Z,24.30
2019-03-27T08:13:14.306Z,25.30
2019-03-27T08:15:43.666Z,19.82
2019-03-27T08:18:13.284Z,22.13
2019-03-27T08:20:42.456Z,21.07
2019-03-27T08:23:11.619Z,22.05
2019-03-27T08:25:40.957Z,24.70
2019-03-27T08:28:10.096Z,23.40
2019-03-27T08:30:39.540Z,17.85
2019-03-27T08:33:08.665Z,22.80
2019-03-27T08:35:37.792Z,21.90
2019-03-27T08:38:07.303Z,23.45
2019-03-27T08:40:36.515Z,22.30
2019-03-27T08:43:05.666Z,24.87
2019-03-27T08:45:34.777Z,19.62
2019-03-27T08:48:03.808Z,21.62
2019-03-27T08:50:33.060Z,21.70
2019-03-27T08:53:02.596Z,20.12
2019-03-27T08:55:31.804Z,21.50
2019-03-27T08:58:00.926Z,18.87
2019-03-27T09:00:42.541Z,17.30
2019-03-27T09:03:11.674Z,24.27
2019-03-27T09:05:41.091Z,17.52
2019-03-27T09:08:10.267Z,21.48
2019-03-27T09:10:39.356Z,19.27
2019-03-27T09:13:09.034Z,17.17
2019-03-27T09:15:38.084Z,15.05
2019-03-27T09:18:07.305Z,20.40
2019-03-27T09:20:36.402Z,15.72
2019-03-27T09:23:05.505Z,18.25
2019-03-27T09:25:34.707Z,22.27
2019-03-27T09:28:04.119Z,14.60
2019-03-27T09:30:33.258Z,14.93
2019-03-27T09:33:02.363Z,17.73
2019-03-27T09:35:31.821Z,18.65
2019-03-27T09:38:00.975Z,16.27
2019-03-27T09:40:30.095Z,21.80
2019-03-27T09:42:59.214Z,20.40
2019-03-27T09:45:28.429Z,16.70
2019-03-27T09:47:57.531Z,17.98
2019-03-27T09:50:26.699Z,15.00
2019-03-27T09:52:55.824Z,17.75
2019-03-27T09:55:24.954Z,16.73
2019-03-27T09:57:53.755Z,16.55
2019-03-27T10:00:40.495Z,15.53
2019-03-27T10:03:09.284Z,18.27
2019-03-27T10:05:38.066Z,17.17
2019-03-27T10:08:07.922Z,17.10
2019-03-27T10:10:37.065Z,12.58
2019-03-27T10:13:06.327Z,14.10
2019-03-27T10:15:35.464Z,14.30
2019-03-27T10:18:05.088Z,16.93
2019-03-27T10:20:34.253Z,15.65
2019-03-27T10:23:03.883Z,15.60
2019-03-27T10:25:32.690Z,15.63
2019-03-27T10:28:01.840Z,16.65
2019-03-27T10:30:31.030Z,17.17
2019-03-27T10:33:00.264Z,17.85
2019-03-27T10:35:29.479Z,14.78
2019-03-27T10:37:59.515Z,14.25
2019-03-27T10:40:28.309Z,16.90
2019-03-27T10:42:57.443Z,13.50
2019-03-27T10:45:26.898Z,16.05
2019-03-27T10:47:56.081Z,14.90
2019-03-27T10:50:24.859Z,14.83
2019-03-27T10:52:53.919Z,15.63
2019-03-27T10:55:23.064Z,15.83
2019-03-27T10:57:52.251Z,17.48
2019-03-27T11:00:21.208Z,15.43
2019-03-27T11:02:50.734Z,13.25
2019-03-27T11:05:19.900Z,19.98
2019-03-27T11:07:49.006Z,16.97
2019-03-27T11:10:18.595Z,16.27
2019-03-27T11:12:47.868Z,16.05
2019-03-27T11:15:17.491Z,17.30
2019-03-27T11:17:46.602Z,17.37
2019-03-27T11:20:16.198Z,18.27
2019-03-27T11:22:45.354Z,16.48
2019-03-27T11:25:14.257Z,19.57
2019-03-27T11:27:43.148Z,14.93
2019-03-27T11:30:13.171Z,17.40
2019-03-27T11:32:42.276Z,18.73
2019-03-27T11:35:11.579Z,16.93
2019-03-27T11:37:40.294Z,14.80
2019-03-27T11:40:09.447Z,17.77
2019-03-27T11:42:38.601Z,15.80
2019-03-27T11:45:08.580Z,20.90
2019-03-27T11:47:38.470Z,15.60
2019-03-27T11:50:10.158Z,16.07
2019-03-27T11:52:38.945Z,15.90
2019-03-27T11:55:07.835Z,13.58
2019-03-27T11:57:36.938Z,14.45
2019-03-27T12:00:09.269Z,14.73
2019-03-27T12:02:38.398Z,13.88
2019-03-27T12:05:08.120Z,16.75
2019-03-27T12:07:36.973Z,16.90
2019-03-27T12:10:07.714Z,18.15
2019-03-27T12:12:36.869Z,18.57
2019-03-27T12:15:07.622Z,13.38
2019-03-27T12:17:36.833Z,12.58
2019-03-27T12:20:07.129Z,11.30
2019-03-27T12:22:35.923Z,14.23
2019-03-27T12:25:05.575Z,10.80
2019-03-27T12:27:34.333Z,9.55
2019-03-27T12:30:03.354Z,7.85
2019-03-27T12:32:32.534Z,11.10
2019-03-27T12:35:02.316Z,13.43
2019-03-27T12:37:31.494Z,10.13
2019-03-27T12:40:00.624Z,11.95
2019-03-27T12:42:29.937Z,12.68
2019-03-27T12:45:01.620Z,11.70
2019-03-27T12:47:29.448Z,12.03
2019-03-27T12:49:58.595Z,9.78
2019-03-27T12:52:27.642Z,7.17
2019-03-27T12:54:56.812Z,12.37
2019-03-27T12:57:25.910Z,7.35
2019-03-27T12:59:55.116Z,5.95
2019-03-27T13:02:24.265Z,7.97
2019-03-27T13:04:53.430Z,12.03
2019-03-27T13:07:22.569Z,8.08
2019-03-27T13:09:51.684Z,6.95
2019-03-27T13:12:20.773Z,6.92
2019-03-27T13:14:50.530Z,9.03
2019-03-27T13:17:19.768Z,10.80
2019-03-27T13:19:48.902Z,9.98
2019-03-27T13:22:18.040Z,7.95
2019-03-27T13:24:47.070Z,5.72
2019-03-27T13:27:16.243Z,7.22
2019-03-27T13:29:45.686Z,5.80
2019-03-27T13:32:14.829Z,8.40
2019-03-27T13:34:43.950Z,5.97
2019-03-27T13:37:13.059Z,8.75
2019-03-27T13:39:42.446Z,6.75
2019-03-27T13:42:11.529Z,6.97
2019-03-27T13:44:40.936Z,5.10
2019-03-27T13:47:10.160Z,6.45
2019-03-27T13:49:39.028Z,10.20
2019-03-27T13:52:07.829Z,7.72
2019-03-27T13:54:36.602Z,8.50
2019-03-27T13:57:05.530Z,9.23
2019-03-27T13:59:34.333Z,7.72
2019-03-27T14:02:03.089Z,10.05
2019-03-27T14:04:31.839Z,8.03
2019-03-27T14:07:00.970Z,10.68
2019-03-27T14:09:29.673Z,6.97
2019-03-27T14:11:58.463Z,8.98
2019-03-27T14:14:27.211Z,9.65
2019-03-27T14:16:56.261Z,6.67
2019-03-27T14:19:25.289Z,8.20
2019-03-27T14:21:55.317Z,5.85
2019-03-27T14:24:24.424Z,10.93
2019-03-27T14:26:53.564Z,7.97
2019-03-27T14:29:23.817Z,12.23
2019-03-27T14:31:53.188Z,8.85
2019-03-27T14:34:22.249Z,8.40
2019-03-27T14:36:51.374Z,7.95
2019-03-27T14:39:20.527Z,7.25
2019-03-27T14:41:49.650Z,10.23
2019-03-27T14:44:21.579Z,7.67
2019-03-27T14:46:50.794Z,6.65
2019-03-27T14:49:19.544Z,10.45
2019-03-27T14:51:48.451Z,8.90
2019-03-27T14:54:17.551Z,6.83
2019-03-27T14:56:46.440Z,8.30
2019-03-27T14:59:15.219Z,9.20
2019-03-27T15:01:43.975Z,9.13
2019-03-27T15:04:12.721Z,9.08
2019-03-27T15:06:41.527Z,8.88
2019-03-27T15:09:10.955Z,8.33
2019-03-27T15:11:39.871Z,6.47
2019-03-27T15:14:08.927Z,9.95
2019-03-27T15:16:38.146Z,7.65
2019-03-27T15:19:06.930Z,5.87
2019-03-27T15:21:35.777Z,6.70
2019-03-27T15:24:04.545Z,10.08
2019-03-27T15:26:33.325Z,8.68
2019-03-27T15:29:02.299Z,7.15
2019-03-27T15:31:32.193Z,10.35
2019-03-27T15:34:00.968Z,6.17
2019-03-27T15:36:29.767Z,8.05
2019-03-27T15:38:58.736Z,7.90
2019-03-27T15:41:27.469Z,6.15
2019-03-27T15:43:56.568Z,6.03
2019-03-27T15:46:25.632Z,6.50
2019-03-27T15:48:54.374Z,8.25
2019-03-27T15:51:23.198Z,6.80
2019-03-27T15:53:52.100Z,5.85
2019-03-27T15:56:24.730Z,8.68
2019-03-27T15:58:56.323Z,7.17
2019-03-27T16:01:24.544Z,6.35
2019-03-27T16:03:53.824Z,7.60
2019-03-27T16:06:23.091Z,8.18
2019-03-27T16:08:52.191Z,8.40
2019-03-27T16:11:21.585Z,7.83
2019-03-27T16:13:50.806Z,8.50
2019-03-27T16:16:20.091Z,5.85
2019-03-27T16:18:49.299Z,6.10
2019-03-27T16:21:18.717Z,9.28
2019-03-27T16:23:47.862Z,7.80
2019-03-27T16:26:17.062Z,10.40
2019-03-27T16:28:46.163Z,8.30
2019-03-27T16:31:15.753Z,8.98
2019-03-27T16:33:45.031Z,8.60
2019-03-27T16:36:14.388Z,9.58
2019-03-27T16:38:43.499Z,8.03
2019-03-27T16:41:12.778Z,7.53
2019-03-27T16:43:44.237Z,8.93
2019-03-27T16:46:13.393Z,9.45
2019-03-27T16:48:42.832Z,7.12
2019-03-27T16:51:12.025Z,9.80
2019-03-27T16:53:41.176Z,7.85
2019-03-27T16:56:12.931Z,12.30
2019-03-27T16:58:45.192Z,8.35
2019-03-27T17:01:17.107Z,9.33
2019-03-27T17:04:11.003Z,10.93
2019-03-27T17:06:39.143Z,6.65
2019-03-27T17:09:08.832Z,8.58
2019-03-27T17:11:38.249Z,7.95
2019-03-27T17:14:09.071Z,10.63
2019-03-27T17:16:38.179Z,10.38
2019-03-27T17:19:07.229Z,8.05
2019-03-27T17:21:36.415Z,8.75
2019-03-27T17:24:05.692Z,9.78
2019-03-27T17:26:34.997Z,8.70
2019-03-27T17:29:04.193Z,9.35
2019-03-27T17:31:33.330Z,7.50
2019-03-27T17:34:02.396Z,8.68
2019-03-27T17:36:31.524Z,7.12
2019-03-27T17:39:00.987Z,11.85
2019-03-27T17:41:30.161Z,7.08
2019-03-27T17:43:59.517Z,7.67
2019-03-27T17:46:28.701Z,7.90
2019-03-27T17:48:57.792Z,5.90
2019-03-27T17:51:26.944Z,9.25
2019-03-27T17:53:56.065Z,10.18
2019-03-27T17:56:25.242Z,9.30
2019-03-27T17:58:54.610Z,6.55
2019-03-27T18:01:23.695Z,7.58
2019-03-27T18:03:52.898Z,8.83
2019-03-27T18:06:22.005Z,8.35
2019-03-27T18:08:51.228Z,6.87
2019-03-27T18:11:20.370Z,6.58
2019-03-27T18:13:53.028Z,9.63
2019-03-27T18:16:30.000Z,7.67
2019-03-27T18:19:00.582Z,8.05
2019-03-27T18:22:10.646Z,6.58
2019-03-27T18:24:46.565Z,9.60
2019-03-27T18:27:21.745Z,6.78
2019-03-27T18:29:50.560Z,7.55
2019-03-27T18:32:19.491Z,5.05
2019-03-27T18:34:55.215Z,7.62
2019-03-27T18:37:24.382Z,7.65
2019-03-27T18:40:05.966Z,7.97
2019-03-27T18:42:34.968Z,7.72
2019-03-27T18:45:11.942Z,11.22
2019-03-27T18:47:40.925Z,8.25
2019-03-27T18:50:10.262Z,9.83
2019-03-27T18:52:46.215Z,8.43
2019-03-27T18:55:25.818Z,8.25
2019-03-27T18:57:59.883Z,8.85
2019-03-27T19:00:23.711Z,9.48
2019-03-27T19:02:52.551Z,13.25
2019-03-27T19:05:28.595Z,10.00
2019-03-27T19:07:57.417Z,10.00
2019-03-27T19:10:33.263Z,8.48
2019-03-27T19:13:02.133Z,7.10
2019-03-27T19:15:30.998Z,10.65
2019-03-27T19:18:06.570Z,15.13
2019-03-27T19:20:35.437Z,9.58
2019-03-27T19:23:10.562Z,10.85
2019-03-27T19:25:46.108Z,8.95
2019-03-27T19:28:14.978Z,9.88
2019-03-27T19:30:50.366Z,10.63
2019-03-27T19:33:19.184Z,13.78
2019-03-27T19:35:55.143Z,14.30
2019-03-27T19:38:24.001Z,11.65
2019-03-27T19:41:06.232Z,9.75
2019-03-27T19:43:35.055Z,9.40
2019-03-27T19:46:04.042Z,9.93
2019-03-27T19:48:39.907Z,8.00
2019-03-27T19:51:11.244Z,11.22
2019-03-27T19:53:46.222Z,11.08
2019-03-27T19:56:15.081Z,11.95
2019-03-27T19:58:43.930Z,10.18
2019-03-27T20:01:19.302Z,12.15
2019-03-27T20:03:48.180Z,13.65
2019-03-27T20:06:24.013Z,14.45
2019-03-27T20:08:56.497Z,14.55
2019-03-27T20:11:23.752Z,14.25
2019-03-27T20:13:59.458Z,12.50
2019-03-27T20:16:28.337Z,13.13
2019-03-27T20:19:03.409Z,13.08
2019-03-27T20:21:32.237Z,13.80
2019-03-27T20:24:07.584Z,13.95
2019-03-27T20:26:50.214Z,14.63
2019-03-27T20:29:19.080Z,10.43
2019-03-27T20:31:54.912Z,14.75
2019-03-27T20:34:23.749Z,15.70
2019-03-27T20:36:52.608Z,10.03
2019-03-27T20:39:27.605Z,13.55
2019-03-27T20:41:56.465Z,15.40
2019-03-27T20:44:31.782Z,11.45
2019-03-27T20:47:00.610Z,11.10
2019-03-27T20:49:29.461Z,13.50
2019-03-27T20:52:05.114Z,12.47
2019-03-27T20:54:34.911Z,10.45
2019-03-27T20:57:09.926Z,13.48
2019-03-27T20:59:39.046Z,12.98
2019-03-27T21:02:07.873Z,13.72
2019-03-27T21:04:43.356Z,12.30
2019-03-27T21:07:12.218Z,13.50
2019-03-27T21:09:47.917Z,12.37
2019-03-27T21:12:17.168Z,13.72
2019-03-27T21:14:46.027Z,14.00
2019-03-27T21:17:21.516Z,13.10
2019-03-27T21:19:50.486Z,15.20
2019-03-27T21:22:26.811Z,12.00
2019-03-27T21:25:08.608Z,13.03
2019-03-27T21:27:47.160Z,14.33
2019-03-27T21:30:16.710Z,15.90
2019-03-27T21:32:45.555Z,13.50
2019-03-27T21:35:22.749Z,14.95
2019-03-27T21:37:51.596Z,15.18
2019-03-27T21:40:28.886Z,13.03
2019-03-27T21:42:57.697Z,13.28
2019-03-27T21:45:26.613Z,12.93
2019-03-27T21:48:01.956Z,13.38
2019-03-27T21:50:31.019Z,14.45
2019-03-27T21:53:06.564Z,16.73
2019-03-27T21:55:42.820Z,14.03
2019-03-27T21:58:06.254Z,13.50
2019-03-27T22:00:44.437Z,14.93
2019-03-27T22:03:13.705Z,14.13
2019-03-27T22:05:49.589Z,13.43
2019-03-27T22:08:19.115Z,15.55
2019-03-27T22:10:48.254Z,15.20
2019-03-27T22:13:23.249Z,21.27
2019-03-27T22:15:52.125Z,16.05
2019-03-27T22:18:27.359Z,19.23
2019-03-27T22:20:56.219Z,58.68
2019-03-27T22:23:25.091Z,42.05
2019-03-27T22:26:00.604Z,32.75
2019-03-27T22:28:35.884Z,40.83
2019-03-27T22:31:18.402Z,25.17
2019-03-27T22:33:47.216Z,32.55
2019-03-27T22:36:16.159Z,24.47
2019-03-27T22:38:52.038Z,32.28
2019-03-27T22:41:20.883Z,26.68
2019-03-27T22:43:56.145Z,28.87
2019-03-27T22:46:25.005Z,32.55
2019-03-27T22:48:53.864Z,36.68
2019-03-27T22:51:28.850Z,30.30
2019-03-27T22:53:57.713Z,35.60
2019-03-27T22:56:32.725Z,27.15
2019-03-27T22:59:01.574Z,29.85
2019-03-27T23:01:33.360Z,33.50
2019-03-27T23:04:08.627Z,37.38
2019-03-27T23:06:37.531Z,28.10
2019-03-27T23:09:12.781Z,25.90
2019-03-27T23:11:41.685Z,29.18
2019-03-27T23:14:10.512Z,29.15
2019-03-27T23:16:46.110Z,29.42
2019-03-27T23:19:14.942Z,30.05
2019-03-27T23:21:50.477Z,27.52
2019-03-27T23:24:19.334Z,27.77
2019-03-27T23:27:01.197Z,21.17
2019-03-27T23:29:37.414Z,19.02
2019-03-27T23:32:12.919Z,21.33
2019-03-27T23:34:41.840Z,24.23
2019-03-27T23:37:10.667Z,22.75
2019-03-27T23:39:46.387Z,20.17
2019-03-27T23:42:16.423Z,26.17
2019-03-27T23:44:52.620Z,26.97
2019-03-27T23:47:21.550Z,24.32
2019-03-27T23:49:50.410Z,20.23
2019-03-27T23:52:25.629Z,21.48
2019-03-27T23:54:54.446Z,20.85
2019-03-27T23:57:30.300Z,20.97
2019-03-27T23:59:59.258Z,23.25
